createdAt,value
2023-12-15T00:00:46.397Z,4.35
2023-12-15T00:01:46.387Z,4.35
2023-12-15T00:02:46.372Z,4.32
2023-12-15T00:03:46.393Z,4.32
2023-12-15T00:04:46.333Z,4.32
2023-12-15T00:05:46.371Z,4.34
2023-12-15T00:06:46.343Z,4.38
2023-12-15T00:07:46.318Z,4.35
2023-12-15T00:08:46.558Z,4.38
2023-12-15T00:09:46.285Z,4.38
2023-12-15T00:10:46.269Z,4.35
2023-12-15T00:11:46.263Z,4.37
2023-12-15T00:12:46.267Z,4.37
2023-12-15T00:13:46.253Z,4.34
2023-12-15T00:14:46.256Z,4.35
2023-12-15T00:15:46.223Z,4.30
2023-12-15T00:16:46.256Z,4.31
2023-12-15T00:17:46.328Z,4.34
2023-12-15T00:18:46.255Z,4.32
2023-12-15T00:19:46.220Z,4.31
2023-12-15T00:20:46.211Z,4.28
2023-12-15T00:21:46.153Z,4.31
2023-12-15T00:22:46.153Z,4.31
2023-12-15T00:23:46.139Z,4.28
2023-12-15T00:24:46.131Z,4.28
2023-12-15T00:25:46.142Z,4.32
2023-12-15T00:26:46.120Z,4.32
2023-12-15T00:27:46.091Z,4.35
2023-12-15T00:28:46.107Z,4.32
2023-12-15T00:29:46.090Z,4.34
2023-12-15T00:30:46.099Z,4.31
2023-12-15T00:31:46.062Z,4.30
2023-12-15T00:32:46.064Z,4.31
2023-12-15T00:33:46.172Z,4.30
2023-12-15T00:34:46.033Z,4.28
2023-12-15T00:35:46.031Z,4.23
2023-12-15T00:36:46.036Z,4.23
2023-12-15T00:37:45.980Z,4.26
2023-12-15T00:38:46.016Z,4.24
2023-12-15T00:39:45.973Z,4.26
2023-12-15T00:40:45.980Z,4.20
2023-12-15T00:41:46.108Z,4.20
2023-12-15T00:42:45.949Z,4.22
2023-12-15T00:43:45.930Z,4.19
2023-12-15T00:44:45.951Z,4.16
2023-12-15T00:45:45.914Z,4.22
2023-12-15T00:46:45.900Z,4.20
2023-12-15T00:47:46.044Z,4.28
2023-12-15T00:48:46.000Z,4.30
2023-12-15T00:49:45.869Z,4.32
2023-12-15T00:50:45.864Z,4.28
2023-12-15T00:51:45.858Z,4.31
2023-12-15T00:52:46.111Z,4.32
2023-12-15T00:53:45.837Z,4.32
2023-12-15T00:54:45.826Z,4.32
2023-12-15T00:55:45.801Z,4.34
2023-12-15T00:56:45.814Z,4.34
2023-12-15T00:57:45.802Z,4.37
2023-12-15T00:58:45.822Z,4.38
2023-12-15T00:59:45.770Z,4.37
2023-12-15T01:00:45.803Z,4.38
2023-12-15T01:01:45.783Z,4.40
2023-12-15T01:02:45.758Z,4.38
2023-12-15T01:03:45.826Z,4.38
2023-12-15T01:04:45.772Z,4.37
2023-12-15T01:05:45.759Z,4.35
2023-12-15T01:06:45.711Z,4.37
2023-12-15T01:07:48.126Z,4.37
2023-12-15T01:08:45.692Z,4.37
2023-12-15T01:09:46.268Z,4.38
2023-12-15T01:10:45.710Z,4.38
2023-12-15T01:11:45.657Z,4.37
2023-12-15T01:12:45.644Z,4.40
2023-12-15T01:13:45.636Z,4.41
2023-12-15T01:14:45.692Z,4.41
2023-12-15T01:15:45.608Z,4.42
2023-12-15T01:16:45.599Z,4.38
2023-12-15T01:17:45.729Z,4.40
2023-12-15T01:18:45.655Z,4.40
2023-12-15T01:19:45.564Z,4.41
2023-12-15T01:20:45.578Z,4.41
2023-12-15T01:21:45.541Z,4.40
2023-12-15T01:22:45.537Z,4.37
2023-12-15T01:23:45.532Z,4.40
2023-12-15T01:24:45.504Z,4.40
2023-12-15T01:25:45.587Z,4.38
2023-12-15T01:26:45.531Z,4.40
2023-12-15T01:27:45.474Z,4.38
2023-12-15T01:28:45.482Z,4.42
2023-12-15T01:29:45.507Z,4.41
2023-12-15T01:30:45.491Z,4.42
2023-12-15T01:31:45.456Z,4.44
2023-12-15T01:32:45.518Z,4.48
2023-12-15T01:33:45.475Z,4.44
2023-12-15T01:34:45.443Z,4.44
2023-12-15T01:35:45.399Z,4.44
2023-12-15T01:36:45.420Z,4.42
2023-12-15T01:37:45.370Z,4.42
2023-12-15T01:38:45.406Z,4.38
2023-12-15T01:39:45.352Z,4.40
2023-12-15T01:40:45.369Z,4.40
2023-12-15T01:41:45.334Z,4.37
2023-12-15T01:42:45.338Z,4.41
2023-12-15T01:43:45.315Z,4.35
2023-12-15T01:44:45.330Z,4.35
2023-12-15T01:45:45.304Z,4.35
2023-12-15T01:46:45.281Z,4.37
2023-12-15T01:47:45.349Z,4.38
2023-12-15T01:48:45.387Z,4.42
2023-12-15T01:49:45.259Z,4.42
2023-12-15T01:50:45.250Z,4.44
2023-12-15T01:51:45.269Z,4.42
2023-12-15T01:52:45.231Z,4.50
2023-12-15T01:53:45.225Z,4.49
2023-12-15T01:54:45.237Z,4.49
2023-12-15T01:55:45.186Z,4.52
2023-12-15T01:56:45.179Z,4.52
2023-12-15T01:57:45.208Z,4.52
2023-12-15T01:58:45.759Z,4.53
2023-12-15T01:59:45.182Z,4.55
2023-12-15T02:00:45.213Z,4.56
2023-12-15T02:01:45.163Z,4.55
2023-12-15T02:02:45.130Z,4.56
2023-12-15T02:03:45.173Z,4.58
2023-12-15T02:04:45.131Z,4.56
2023-12-15T02:05:45.215Z,4.63
2023-12-15T02:06:45.103Z,4.60
2023-12-15T02:07:45.067Z,4.63
2023-12-15T02:08:45.088Z,4.67
2023-12-15T02:09:45.314Z,4.70
2023-12-15T02:10:45.039Z,4.71
2023-12-15T02:11:45.022Z,4.71
2023-12-15T02:12:45.024Z,4.74
2023-12-15T02:13:45.025Z,4.75
2023-12-15T02:14:45.000Z,4.74
2023-12-15T02:15:45.000Z,4.75
2023-12-15T02:16:44.983Z,4.78
2023-12-15T02:17:45.260Z,4.75
2023-12-15T02:18:45.047Z,4.80
2023-12-15T02:19:44.948Z,4.82
2023-12-15T02:20:44.963Z,4.82
2023-12-15T02:21:44.946Z,4.87
2023-12-15T02:22:44.908Z,4.87
2023-12-15T02:23:44.931Z,4.87
2023-12-15T02:24:44.909Z,4.89
2023-12-15T02:25:44.879Z,4.92
2023-12-15T02:26:44.882Z,4.87
2023-12-15T02:27:44.863Z,4.89
2023-12-15T02:28:44.849Z,4.89
2023-12-15T02:29:44.843Z,4.89
2023-12-15T02:30:44.865Z,4.92
2023-12-15T02:31:44.881Z,4.89
2023-12-15T02:32:44.967Z,4.94
2023-12-15T02:33:44.944Z,4.93
2023-12-15T02:34:44.916Z,4.94
2023-12-15T02:35:44.777Z,4.93
2023-12-15T02:36:44.775Z,4.96
2023-12-15T02:37:44.774Z,4.92
2023-12-15T02:38:44.748Z,4.96
2023-12-15T02:39:44.778Z,4.96
2023-12-15T02:40:44.734Z,4.94
2023-12-15T02:41:44.719Z,4.93
2023-12-15T02:42:44.969Z,4.94
2023-12-15T02:43:44.708Z,4.97
2023-12-15T02:44:44.686Z,4.94
2023-12-15T02:45:44.676Z,4.97
2023-12-15T02:46:44.674Z,4.96
2023-12-15T02:47:45.087Z,4.97
2023-12-15T02:48:44.692Z,4.99
2023-12-15T02:49:44.643Z,4.97
2023-12-15T02:50:44.623Z,4.99
2023-12-15T02:51:44.618Z,5.00
2023-12-15T02:52:44.699Z,5.00
2023-12-15T02:53:44.617Z,5.00
2023-12-15T02:54:44.577Z,5.00
2023-12-15T02:55:44.573Z,5.05
2023-12-15T02:56:44.580Z,5.00
2023-12-15T02:57:44.558Z,5.04
2023-12-15T02:58:44.539Z,5.00
2023-12-15T02:59:44.556Z,5.02
2023-12-15T03:00:44.545Z,5.02
2023-12-15T03:01:44.528Z,5.00
2023-12-15T03:02:44.496Z,5.00
2023-12-15T03:03:44.512Z,4.97
2023-12-15T03:04:44.848Z,4.99
2023-12-15T03:05:44.518Z,4.97
2023-12-15T03:06:44.469Z,4.99
2023-12-15T03:07:44.454Z,4.99
2023-12-15T03:08:44.437Z,4.93
2023-12-15T03:09:44.442Z,4.97
2023-12-15T03:10:45.168Z,4.99
2023-12-15T03:11:44.426Z,5.00
2023-12-15T03:12:44.408Z,4.97
2023-12-15T03:13:44.390Z,4.99
2023-12-15T03:14:44.374Z,4.99
2023-12-15T03:15:44.701Z,5.00
2023-12-15T03:16:44.372Z,4.99
2023-12-15T03:17:44.700Z,5.00
2023-12-15T03:18:44.386Z,5.00
2023-12-15T03:19:44.321Z,5.02
2023-12-15T03:20:44.346Z,5.04
2023-12-15T03:21:44.321Z,5.07
2023-12-15T03:22:44.316Z,5.05
2023-12-15T03:23:44.316Z,5.07
2023-12-15T03:24:44.275Z,5.11
2023-12-15T03:25:44.265Z,5.07
2023-12-15T03:26:44.269Z,5.08
2023-12-15T03:27:44.262Z,5.07
2023-12-15T03:28:44.234Z,5.07
2023-12-15T03:29:44.234Z,5.05
2023-12-15T03:30:44.233Z,5.04
2023-12-15T03:31:44.246Z,5.07
2023-12-15T03:32:44.225Z,5.07
2023-12-15T03:33:44.277Z,5.04
2023-12-15T03:34:44.196Z,5.05
2023-12-15T03:35:44.157Z,5.07
2023-12-15T03:36:44.170Z,5.07
2023-12-15T03:37:44.410Z,5.10
2023-12-15T03:38:44.134Z,5.10
2023-12-15T03:39:44.122Z,5.08
2023-12-15T03:40:44.100Z,5.11
2023-12-15T03:41:44.103Z,5.08
2023-12-15T03:42:44.087Z,5.04
2023-12-15T03:43:44.092Z,5.07
2023-12-15T03:44:44.066Z,5.11
2023-12-15T03:45:44.062Z,5.08
2023-12-15T03:46:44.045Z,5.11
2023-12-15T03:47:44.583Z,5.10
2023-12-15T03:48:44.253Z,5.12
2023-12-15T03:49:44.040Z,5.14
2023-12-15T03:50:44.012Z,5.15
2023-12-15T03:51:44.001Z,5.17
2023-12-15T03:52:44.013Z,5.17
2023-12-15T03:53:43.995Z,5.15
2023-12-15T03:54:43.976Z,5.18
2023-12-15T03:55:43.958Z,5.15
2023-12-15T03:56:43.966Z,5.18
2023-12-15T03:57:43.937Z,5.18
2023-12-15T03:58:43.948Z,5.17
2023-12-15T03:59:43.945Z,5.20
2023-12-15T04:00:43.937Z,5.18
2023-12-15T04:01:43.937Z,5.18
2023-12-15T04:02:43.990Z,5.17
2023-12-15T04:03:43.880Z,5.21
2023-12-15T04:04:43.886Z,5.18
2023-12-15T04:05:43.951Z,5.18
2023-12-15T04:06:43.842Z,5.18
2023-12-15T04:07:43.863Z,5.17
2023-12-15T04:08:43.844Z,5.20
2023-12-15T04:09:43.812Z,5.20
2023-12-15T04:10:43.828Z,5.21
2023-12-15T04:11:43.798Z,5.25
2023-12-15T04:12:43.791Z,5.23
2023-12-15T04:13:43.769Z,5.23
2023-12-15T04:14:43.771Z,5.23
2023-12-15T04:15:43.761Z,5.26
2023-12-15T04:16:43.770Z,5.26
2023-12-15T04:17:44.277Z,5.25
2023-12-15T04:18:43.834Z,5.28
2023-12-15T04:19:43.748Z,5.26
2023-12-15T04:20:43.758Z,5.29
2023-12-15T04:21:43.722Z,5.29
2023-12-15T04:22:43.680Z,5.28
2023-12-15T04:23:43.663Z,5.28
2023-12-15T04:24:43.654Z,5.29
2023-12-15T04:25:43.656Z,5.28
2023-12-15T04:26:43.640Z,5.29
2023-12-15T04:27:44.022Z,5.30
2023-12-15T04:28:43.633Z,5.30
2023-12-15T04:29:43.620Z,5.29
2023-12-15T04:30:43.657Z,5.30
2023-12-15T04:31:43.588Z,5.32
2023-12-15T04:32:43.710Z,5.33
2023-12-15T04:33:43.688Z,5.36
2023-12-15T04:34:43.550Z,5.35
2023-12-15T04:35:43.564Z,5.36
2023-12-15T04:36:43.527Z,5.36
2023-12-15T04:37:43.549Z,5.38
2023-12-15T04:38:43.518Z,5.43
2023-12-15T04:39:43.526Z,5.39
2023-12-15T04:40:43.523Z,5.39
2023-12-15T04:41:43.501Z,5.39
2023-12-15T04:42:43.467Z,5.38
2023-12-15T04:43:43.490Z,5.36
2023-12-15T04:44:43.446Z,5.35
2023-12-15T04:45:43.444Z,5.35
2023-12-15T04:46:43.444Z,5.35
2023-12-15T04:47:43.907Z,5.36
2023-12-15T04:48:43.450Z,5.35
2023-12-15T04:49:43.418Z,5.38
2023-12-15T04:50:43.440Z,5.36
2023-12-15T04:51:43.376Z,5.36
2023-12-15T04:52:43.386Z,5.33
2023-12-15T04:53:43.384Z,5.41
2023-12-15T04:56:11.661Z,5.39
2023-12-15T04:56:17.062Z,5.43
2023-12-15T04:57:16.920Z,5.43
2023-12-15T04:58:16.920Z,5.44
2023-12-15T04:59:16.920Z,5.44
2023-12-15T05:00:16.904Z,5.43
2023-12-15T05:01:16.921Z,5.46
2023-12-15T05:02:16.904Z,5.46
2023-12-15T05:03:16.913Z,5.44
2023-12-15T05:04:16.852Z,5.44
2023-12-15T05:05:16.930Z,5.46
2023-12-15T05:06:16.924Z,5.46
2023-12-15T05:07:16.852Z,5.47
2023-12-15T05:08:16.888Z,5.47
2023-12-15T05:09:16.833Z,5.46
2023-12-15T05:10:16.847Z,5.44
2023-12-15T05:11:16.837Z,5.46
2023-12-15T05:12:16.774Z,5.46
2023-12-15T05:13:16.760Z,5.47
2023-12-15T05:14:16.771Z,5.47
2023-12-15T05:15:16.737Z,5.47
2023-12-15T05:16:16.737Z,5.47
2023-12-15T05:17:16.755Z,5.46
2023-12-15T05:18:16.809Z,5.46
2023-12-15T05:19:16.737Z,5.44
2023-12-15T05:20:16.710Z,5.47
2023-12-15T05:21:16.682Z,5.48
2023-12-15T05:22:16.684Z,5.46
2023-12-15T05:23:16.681Z,5.47
2023-12-15T05:24:16.644Z,5.50
2023-12-15T05:25:16.631Z,5.47
2023-12-15T05:26:16.650Z,5.50
2023-12-15T05:27:16.609Z,5.48
2023-12-15T05:28:16.611Z,5.50
2023-12-15T05:29:16.659Z,5.50
2023-12-15T05:30:16.634Z,5.51
2023-12-15T05:31:16.575Z,5.53
2023-12-15T05:32:16.683Z,5.53
2023-12-15T05:33:16.815Z,5.56
2023-12-15T05:34:16.633Z,5.53
2023-12-15T05:35:16.555Z,5.54
2023-12-15T05:36:16.520Z,5.56
2023-12-15T05:37:16.508Z,5.54
2023-12-15T05:38:16.555Z,5.56
2023-12-15T05:39:16.499Z,5.53
2023-12-15T05:40:16.508Z,5.54
2023-12-15T05:41:16.551Z,5.57
2023-12-15T05:42:16.480Z,5.59
2023-12-15T05:43:16.466Z,5.56
2023-12-15T05:44:16.466Z,5.56
2023-12-15T05:45:16.447Z,5.57
2023-12-15T05:46:16.443Z,5.57
2023-12-15T05:47:16.509Z,5.57
2023-12-15T05:48:16.665Z,5.59
2023-12-15T05:49:16.633Z,5.59
2023-12-15T05:50:16.565Z,5.57
2023-12-15T05:51:16.366Z,5.62
2023-12-15T05:52:16.388Z,5.61
2023-12-15T05:53:16.365Z,5.59
2023-12-15T05:54:16.363Z,5.59
2023-12-15T05:55:16.345Z,5.61
2023-12-15T05:56:16.316Z,5.61
2023-12-15T05:57:16.314Z,5.59
2023-12-15T05:58:16.289Z,5.59
2023-12-15T05:59:16.300Z,5.62
2023-12-15T06:00:16.533Z,5.62
2023-12-15T06:01:16.302Z,5.64
2023-12-15T06:02:16.291Z,5.62
2023-12-15T06:03:16.301Z,5.64
2023-12-15T06:04:16.225Z,5.64
2023-12-15T06:05:16.270Z,5.64
2023-12-15T06:06:16.332Z,5.66
2023-12-15T06:07:16.204Z,5.68
2023-12-15T06:08:16.222Z,5.69
2023-12-15T06:09:16.205Z,5.69
2023-12-15T06:10:16.167Z,5.68
2023-12-15T06:11:16.243Z,5.71
2023-12-15T06:12:16.222Z,5.72
2023-12-15T06:13:16.143Z,5.73
2023-12-15T06:14:16.198Z,5.76
2023-12-15T06:15:16.116Z,5.73
2023-12-15T06:16:16.117Z,5.73
2023-12-15T06:17:16.160Z,5.76
2023-12-15T06:18:16.220Z,5.80
2023-12-15T06:19:16.130Z,5.79
2023-12-15T06:20:16.114Z,5.82
2023-12-15T06:21:16.078Z,5.79
2023-12-15T06:22:16.162Z,5.82
2023-12-15T06:23:16.089Z,5.79
2023-12-15T06:24:16.039Z,5.80
2023-12-15T06:25:16.019Z,5.75
2023-12-15T06:26:16.035Z,5.80
2023-12-15T06:27:16.015Z,5.80
2023-12-15T06:28:16.010Z,5.80
2023-12-15T06:29:16.024Z,5.79
2023-12-15T06:30:16.004Z,5.80
2023-12-15T06:31:15.945Z,5.84
2023-12-15T06:32:16.178Z,5.84
2023-12-15T06:33:17.318Z,5.84
2023-12-15T06:34:17.893Z,5.84
2023-12-15T06:35:17.062Z,5.87
2023-12-15T06:36:15.929Z,5.89
2023-12-15T06:37:15.945Z,5.89
2023-12-15T06:38:15.920Z,5.89
2023-12-15T06:39:15.887Z,5.86
2023-12-15T06:40:15.862Z,5.89
2023-12-15T06:41:15.885Z,5.89
2023-12-15T06:42:15.848Z,5.90
2023-12-15T06:43:15.837Z,5.90
2023-12-15T06:44:15.901Z,5.91
2023-12-15T06:45:15.928Z,5.97
2023-12-15T06:46:15.845Z,5.91
2023-12-15T06:47:15.820Z,5.94
2023-12-15T06:48:15.926Z,5.93
2023-12-15T06:49:17.880Z,5.94
2023-12-15T06:50:15.825Z,5.97
2023-12-15T06:51:15.766Z,5.97
2023-12-15T06:52:15.739Z,5.97
2023-12-15T06:53:15.755Z,5.97
2023-12-15T06:54:15.720Z,5.97
2023-12-15T06:55:15.752Z,5.99
2023-12-15T06:56:15.726Z,5.99
2023-12-15T06:57:15.690Z,5.99
2023-12-15T06:58:15.694Z,6.02
2023-12-15T06:59:15.716Z,6.04
2023-12-15T07:00:15.675Z,6.04
2023-12-15T07:01:15.707Z,6.05
2023-12-15T07:02:15.758Z,6.05
2023-12-15T07:03:15.697Z,6.05
2023-12-15T07:04:15.808Z,6.07
2023-12-15T07:05:15.658Z,6.07
2023-12-15T07:06:15.668Z,6.07
2023-12-15T07:07:15.605Z,6.09
2023-12-15T07:08:15.621Z,6.09
2023-12-15T07:09:17.259Z,6.12
2023-12-15T07:10:15.569Z,6.09
2023-12-15T07:11:15.546Z,6.11
2023-12-15T07:12:15.564Z,6.09
2023-12-15T07:13:15.531Z,6.11
2023-12-15T07:14:15.565Z,6.16
2023-12-15T07:15:15.518Z,6.08
2023-12-15T07:16:15.494Z,6.14
2023-12-15T07:17:15.571Z,6.17
2023-12-15T07:18:15.545Z,6.14
2023-12-15T07:19:15.481Z,6.16
2023-12-15T07:20:15.502Z,6.14
2023-12-15T07:21:15.444Z,6.16
2023-12-15T07:22:17.963Z,6.14
2023-12-15T07:23:15.434Z,6.16
2023-12-15T07:24:15.413Z,6.19
2023-12-15T07:25:15.403Z,6.16
2023-12-15T07:26:15.403Z,6.14
2023-12-15T07:27:15.383Z,6.14
2023-12-15T07:28:15.391Z,6.17
2023-12-15T07:29:15.396Z,6.19
2023-12-15T07:30:15.372Z,6.19
2023-12-15T07:31:15.349Z,6.22
2023-12-15T07:32:15.342Z,6.19
2023-12-15T07:33:15.399Z,6.22
2023-12-15T07:34:15.413Z,6.19
2023-12-15T07:35:21.066Z,6.22
2023-12-15T07:36:15.337Z,6.24
2023-12-15T07:37:15.267Z,6.26
2023-12-15T07:38:15.326Z,6.26
2023-12-15T07:39:15.287Z,6.26
2023-12-15T07:40:15.256Z,6.27
2023-12-15T07:41:15.269Z,6.27
2023-12-15T07:42:15.223Z,6.28
2023-12-15T07:43:15.209Z,6.27
2023-12-15T07:44:15.222Z,6.28
2023-12-15T07:45:15.194Z,6.27
2023-12-15T07:46:15.207Z,6.28
2023-12-15T07:47:15.212Z,6.28
2023-12-15T07:48:15.204Z,6.30
2023-12-15T07:49:15.194Z,6.31
2023-12-15T07:50:15.241Z,6.31
2023-12-15T07:51:15.132Z,6.31
2023-12-15T07:52:15.117Z,6.33
2023-12-15T07:53:15.237Z,6.30
2023-12-15T07:54:15.110Z,6.33
2023-12-15T07:55:15.099Z,6.33
2023-12-15T07:56:15.107Z,6.31
2023-12-15T07:57:15.068Z,6.35
2023-12-15T07:58:15.050Z,6.36
2023-12-15T07:59:15.092Z,6.33
2023-12-15T08:00:15.081Z,6.35
2023-12-15T08:01:15.081Z,6.33
2023-12-15T08:02:15.028Z,6.35
2023-12-15T08:03:15.029Z,6.36
2023-12-15T08:04:15.002Z,6.35
2023-12-15T08:05:15.052Z,6.36
2023-12-15T08:06:15.063Z,6.36
2023-12-15T08:07:14.982Z,6.36
2023-12-15T08:08:14.968Z,6.39
2023-12-15T08:09:14.945Z,6.41
2023-12-15T08:10:14.940Z,6.42
2023-12-15T08:11:15.002Z,6.41
2023-12-15T08:12:14.937Z,6.42
2023-12-15T08:13:15.018Z,6.42
2023-12-15T08:14:14.905Z,6.42
2023-12-15T08:15:14.905Z,6.39
2023-12-15T08:16:15.146Z,6.42
2023-12-15T08:17:14.882Z,6.41
2023-12-15T08:18:15.000Z,6.41
2023-12-15T08:19:14.912Z,6.44
2023-12-15T08:20:14.863Z,6.42
2023-12-15T08:21:14.843Z,6.44
2023-12-15T08:22:14.812Z,6.45
2023-12-15T08:23:14.819Z,6.41
2023-12-15T08:24:14.790Z,6.45
2023-12-15T08:25:14.779Z,6.45
2023-12-15T08:26:14.803Z,6.45
2023-12-15T08:27:14.753Z,6.46
2023-12-15T08:28:14.753Z,6.44
2023-12-15T08:29:14.787Z,6.46
2023-12-15T08:30:14.748Z,6.48
2023-12-15T08:31:14.720Z,6.48
2023-12-15T08:32:14.745Z,6.49
2023-12-15T08:33:14.834Z,6.46
2023-12-15T08:34:14.783Z,6.49
2023-12-15T08:35:14.698Z,6.49
2023-12-15T08:36:14.663Z,6.49
2023-12-15T08:37:14.653Z,6.51
2023-12-15T08:38:14.746Z,6.52
2023-12-15T08:39:17.758Z,6.52
2023-12-15T08:40:14.644Z,6.51
2023-12-15T08:41:14.633Z,6.49
2023-12-15T08:42:14.605Z,6.52
2023-12-15T08:43:14.589Z,6.49
2023-12-15T08:44:24.109Z,6.51
2023-12-15T08:45:14.677Z,6.51
2023-12-15T08:46:14.557Z,6.52
2023-12-15T08:47:14.593Z,6.56
2023-12-15T08:48:14.629Z,6.56
2023-12-15T08:49:14.557Z,6.54
2023-12-15T08:50:14.563Z,6.56
2023-12-15T08:51:14.523Z,6.56
2023-12-15T08:52:14.503Z,6.56
2023-12-15T08:53:14.505Z,6.57
2023-12-15T08:54:17.468Z,6.59
2023-12-15T08:55:14.468Z,6.57
2023-12-15T08:56:14.797Z,6.59
2023-12-15T08:57:14.569Z,6.60
2023-12-15T08:58:14.440Z,6.60
2023-12-15T08:59:14.473Z,6.63
2023-12-15T09:00:14.412Z,6.63
2023-12-15T09:01:14.445Z,6.63
2023-12-15T09:02:14.437Z,6.64
2023-12-15T09:03:14.448Z,6.66
2023-12-15T09:04:14.390Z,6.64
2023-12-15T09:05:24.926Z,6.66
2023-12-15T09:06:26.197Z,6.63
2023-12-15T09:07:14.444Z,6.64
2023-12-15T09:08:14.547Z,6.64
2023-12-15T09:09:14.391Z,6.66
2023-12-15T09:10:14.312Z,6.66
2023-12-15T09:11:14.335Z,6.66
2023-12-15T09:12:14.318Z,6.67
2023-12-15T09:13:14.293Z,6.69
2023-12-15T09:14:14.324Z,6.69
2023-12-15T09:15:14.274Z,6.74
2023-12-15T09:16:14.287Z,6.78
2023-12-15T09:17:14.301Z,6.74
2023-12-15T09:18:14.432Z,6.79
2023-12-15T09:19:14.324Z,6.75
2023-12-15T09:20:14.254Z,6.77
2023-12-15T09:21:14.246Z,6.77
2023-12-15T09:22:14.186Z,6.78
2023-12-15T09:23:14.211Z,6.75
2023-12-15T09:24:14.176Z,6.77
2023-12-15T09:25:14.149Z,6.78
2023-12-15T09:26:14.169Z,6.79
2023-12-15T09:27:14.135Z,6.82
2023-12-15T09:28:14.120Z,6.84
2023-12-15T09:29:14.196Z,6.84
2023-12-15T09:30:14.126Z,6.87
2023-12-15T09:31:14.092Z,6.85
2023-12-15T09:32:14.139Z,6.88
2023-12-15T09:33:14.296Z,6.92
2023-12-15T09:34:14.133Z,6.92
2023-12-15T09:35:14.172Z,6.89
2023-12-15T09:36:14.052Z,6.92
2023-12-15T09:37:14.037Z,6.95
2023-12-15T09:38:14.113Z,6.95
2023-12-15T09:39:14.008Z,6.96
2023-12-15T09:40:14.025Z,6.99
2023-12-15T09:41:14.043Z,7.02
2023-12-15T09:42:13.985Z,7.02
2023-12-15T09:43:13.970Z,7.03
2023-12-15T09:44:14.002Z,7.05
2023-12-15T09:45:13.976Z,7.05
2023-12-15T09:46:14.022Z,7.06
2023-12-15T09:47:13.960Z,7.05
2023-12-15T09:48:13.954Z,7.07
2023-12-15T09:49:13.935Z,7.10
2023-12-15T09:50:13.918Z,7.13
2023-12-15T09:51:13.916Z,7.11
2023-12-15T09:52:13.902Z,7.14
2023-12-15T09:53:13.892Z,7.18
2023-12-15T09:54:13.896Z,7.20
2023-12-15T09:55:13.864Z,7.20
2023-12-15T09:56:14.179Z,7.20
2023-12-15T09:57:13.851Z,7.20
2023-12-15T09:58:13.828Z,7.21
2023-12-15T09:59:13.847Z,7.21
2023-12-15T10:00:13.821Z,7.24
2023-12-15T10:01:13.832Z,7.21
2023-12-15T10:02:15.053Z,7.25
2023-12-15T10:03:13.780Z,7.24
2023-12-15T10:04:13.774Z,7.25
2023-12-15T10:05:13.828Z,7.25
2023-12-15T10:06:13.831Z,7.31
2023-12-15T10:07:13.744Z,7.31
2023-12-15T10:08:13.738Z,7.31
2023-12-15T10:09:13.822Z,7.33
2023-12-15T10:10:13.719Z,7.35
2023-12-15T10:11:13.733Z,7.32
2023-12-15T10:12:13.677Z,7.36
2023-12-15T10:13:13.681Z,7.38
2023-12-15T10:14:13.652Z,7.35
2023-12-15T10:15:13.711Z,7.39
2023-12-15T10:16:13.638Z,7.38
2023-12-15T10:17:13.674Z,7.42
2023-12-15T10:18:13.777Z,7.42
2023-12-15T10:19:13.789Z,7.45
2023-12-15T10:20:13.772Z,7.50
2023-12-15T10:21:13.574Z,7.45
2023-12-15T10:22:13.580Z,7.48
2023-12-15T10:23:13.619Z,7.47
2023-12-15T10:24:13.610Z,7.50
2023-12-15T10:25:13.540Z,7.51
2023-12-15T10:26:13.666Z,7.54
2023-12-15T10:27:13.517Z,7.54
2023-12-15T10:28:13.516Z,7.56
2023-12-15T10:29:13.554Z,7.58
2023-12-15T10:30:13.566Z,7.61
2023-12-15T10:31:13.471Z,7.66
2023-12-15T10:32:13.462Z,7.63
2023-12-15T10:33:13.572Z,7.60
2023-12-15T10:34:13.509Z,7.67
2023-12-15T10:35:13.472Z,7.70
2023-12-15T10:36:13.495Z,7.70
2023-12-15T10:37:13.411Z,7.72
2023-12-15T10:38:13.487Z,7.76
2023-12-15T10:39:13.410Z,7.72
2023-12-15T10:40:13.653Z,7.67
2023-12-15T10:41:13.407Z,7.72
2023-12-15T10:42:13.376Z,7.72
2023-12-15T10:43:13.367Z,7.70
2023-12-15T10:44:13.358Z,7.70
2023-12-15T10:45:13.341Z,7.70
2023-12-15T10:46:13.733Z,7.72
2023-12-15T10:47:13.396Z,7.70
2023-12-15T10:48:13.389Z,7.72
2023-12-15T10:49:13.433Z,7.70
2023-12-15T10:50:13.304Z,7.76
2023-12-15T10:51:13.279Z,7.76
2023-12-15T10:52:13.247Z,7.70
2023-12-15T10:53:13.277Z,7.76
2023-12-15T10:54:13.237Z,7.76
2023-12-15T10:55:13.237Z,7.73
2023-12-15T10:56:13.259Z,7.70
2023-12-15T10:57:13.206Z,7.72
2023-12-15T10:58:13.206Z,7.69
2023-12-15T10:59:13.264Z,7.70
2023-12-15T11:00:13.163Z,7.75
2023-12-15T11:01:13.199Z,7.70
2023-12-15T11:02:13.260Z,7.70
2023-12-15T11:03:13.182Z,7.72
2023-12-15T11:04:13.138Z,7.75
2023-12-15T11:05:13.639Z,7.73
2023-12-15T11:06:13.354Z,7.73
2023-12-15T11:07:13.154Z,7.72
2023-12-15T11:08:13.176Z,7.75
2023-12-15T11:09:13.104Z,7.77
2023-12-15T11:10:13.088Z,7.75
2023-12-15T11:11:13.122Z,7.77
2023-12-15T11:12:13.074Z,7.80
2023-12-15T11:13:13.035Z,7.75
2023-12-15T11:14:13.093Z,7.79
2023-12-15T11:15:13.073Z,7.80
2023-12-15T11:16:13.082Z,7.82
2023-12-15T11:17:13.059Z,7.83
2023-12-15T11:18:13.219Z,7.82
2023-12-15T11:19:13.091Z,7.80
2023-12-15T11:20:13.047Z,7.80
2023-12-15T11:21:12.999Z,7.79
2023-12-15T11:22:12.975Z,7.79
2023-12-15T11:23:13.161Z,7.79
2023-12-15T11:24:12.922Z,7.79
2023-12-15T11:25:12.952Z,7.77
2023-12-15T11:26:12.916Z,7.77
2023-12-15T11:27:12.901Z,7.79
2023-12-15T11:28:12.977Z,7.79
2023-12-15T11:29:12.955Z,7.77
2023-12-15T11:30:12.882Z,7.77
2023-12-15T11:31:12.868Z,7.79
2023-12-15T11:32:12.882Z,7.79
2023-12-15T11:33:12.920Z,7.80
2023-12-15T11:34:12.943Z,7.80
2023-12-15T11:35:12.833Z,7.80
2023-12-15T11:36:12.822Z,7.77
2023-12-15T11:37:12.814Z,7.80
2023-12-15T11:38:12.804Z,7.77
2023-12-15T11:39:12.766Z,7.79
2023-12-15T11:40:12.796Z,7.79
2023-12-15T11:41:12.798Z,7.82
2023-12-15T11:42:12.755Z,7.82
2023-12-15T11:43:12.730Z,7.85
2023-12-15T11:44:12.787Z,7.83
2023-12-15T11:45:12.759Z,7.85
2023-12-15T11:46:12.693Z,7.85
2023-12-15T11:47:12.728Z,7.87
2023-12-15T11:48:12.859Z,7.85
2023-12-15T11:49:12.744Z,7.87
2023-12-15T11:50:12.687Z,7.83
2023-12-15T11:51:12.662Z,7.87
2023-12-15T11:52:12.646Z,7.85
2023-12-15T11:53:12.648Z,7.87
2023-12-15T11:54:12.617Z,7.90
2023-12-15T11:55:12.610Z,7.93
2023-12-15T11:56:12.621Z,7.93
2023-12-15T11:57:12.585Z,7.93
2023-12-15T11:58:12.580Z,7.95
2023-12-15T11:59:12.658Z,7.95
2023-12-15T12:00:12.575Z,7.97
2023-12-15T12:01:12.560Z,8.01
2023-12-15T12:02:13.253Z,7.97
2023-12-15T12:03:12.541Z,7.98
2023-12-15T12:04:12.575Z,8.00
2023-12-15T12:05:12.607Z,8.01
2023-12-15T12:06:12.510Z,8.03
2023-12-15T12:07:12.502Z,8.03
2023-12-15T12:08:12.488Z,8.06
2023-12-15T12:09:12.450Z,8.06
2023-12-15T12:10:12.458Z,8.09
2023-12-15T12:11:12.472Z,8.08
2023-12-15T12:12:12.423Z,8.09
2023-12-15T12:13:12.528Z,8.09
2023-12-15T12:14:12.475Z,8.09
2023-12-15T12:15:12.394Z,8.09
2023-12-15T12:16:12.384Z,8.10
2023-12-15T12:17:12.462Z,8.10
2023-12-15T12:18:12.514Z,8.12
2023-12-15T12:19:12.375Z,8.13
2023-12-15T12:20:12.504Z,8.15
2023-12-15T12:21:12.339Z,8.10
2023-12-15T12:22:12.337Z,8.18
2023-12-15T12:23:12.319Z,8.20
2023-12-15T12:24:12.404Z,8.18
2023-12-15T12:25:12.338Z,8.20
2023-12-15T12:26:12.309Z,8.20
2023-12-15T12:27:12.269Z,8.18
2023-12-15T12:28:12.256Z,8.20
2023-12-15T12:29:12.285Z,8.19
2023-12-15T12:30:12.472Z,8.20
2023-12-15T12:31:12.230Z,8.20
2023-12-15T12:32:12.242Z,8.23
2023-12-15T12:33:12.452Z,8.24
2023-12-15T12:34:12.291Z,8.20
2023-12-15T12:35:12.284Z,8.23
2023-12-15T12:36:12.180Z,8.24
2023-12-15T12:37:12.313Z,8.23
2023-12-15T12:38:12.198Z,8.20
2023-12-15T12:39:12.199Z,8.24
2023-12-15T12:40:12.137Z,8.27
2023-12-15T12:41:12.174Z,8.24
2023-12-15T12:42:14.329Z,8.23
2023-12-15T12:43:12.119Z,8.23
2023-12-15T12:44:12.105Z,8.28
2023-12-15T12:45:12.104Z,8.28
2023-12-15T12:46:12.095Z,8.33
2023-12-15T12:47:12.106Z,8.28
2023-12-15T12:48:12.154Z,8.27
2023-12-15T12:49:12.134Z,8.33
2023-12-15T12:50:12.142Z,8.30
2023-12-15T12:51:12.019Z,8.31
2023-12-15T12:52:12.027Z,8.34
2023-12-15T12:53:12.016Z,8.33
2023-12-15T12:54:11.998Z,8.33
2023-12-15T12:55:12.010Z,8.34
2023-12-15T12:56:12.534Z,8.34
2023-12-15T12:57:12.033Z,8.34
2023-12-15T12:58:11.958Z,8.34
2023-12-15T12:59:11.979Z,8.36
2023-12-15T13:00:11.924Z,8.36
2023-12-15T13:01:11.941Z,8.37
2023-12-15T13:02:18.726Z,8.38
2023-12-15T13:03:12.073Z,8.41
2023-12-15T13:04:11.898Z,8.38
2023-12-15T13:05:11.924Z,8.41
2023-12-15T13:06:11.875Z,8.37
2023-12-15T13:07:11.860Z,8.41
2023-12-15T13:08:11.912Z,8.41
2023-12-15T13:09:11.887Z,8.42
2023-12-15T13:10:15.050Z,8.41
2023-12-15T13:11:11.866Z,8.41
2023-12-15T13:12:11.810Z,8.44
2023-12-15T13:13:11.784Z,8.45
2023-12-15T13:14:11.828Z,8.46
2023-12-15T13:15:11.775Z,8.45
2023-12-15T13:16:11.754Z,8.48
2023-12-15T13:17:11.786Z,8.45
2023-12-15T13:18:12.025Z,8.44
2023-12-15T13:19:11.812Z,8.45